createdAt,value
2016-12-24T00:00:42.627Z,0
2016-12-24T00:02:04.079Z,0
2016-12-24T00:03:25.675Z,0
2016-12-24T00:04:47.460Z,0
2016-12-24T00:06:09.635Z,0
2016-12-24T00:07:31.714Z,0
2016-12-24T00:08:53.139Z,0
2016-12-24T00:10:14.985Z,0
2016-12-24T00:11:36.540Z,0
2016-12-24T00:12:57.727Z,0
2016-12-24T00:14:19.536Z,0
2016-12-24T00:15:40.964Z,0
2016-12-24T00:17:02.754Z,0
2016-12-24T00:18:24.599Z,0
2016-12-24T00:19:46.715Z,0
2016-12-24T00:21:08.812Z,0
2016-12-24T00:22:31.094Z,0
2016-12-24T00:23:52.536Z,0
2016-12-24T00:25:13.974Z,0
2016-12-24T00:26:35.746Z,0
2016-12-24T00:27:57.856Z,0
2016-12-24T00:29:19.897Z,0
2016-12-24T00:30:41.741Z,0
2016-12-24T00:32:03.188Z,0
2016-12-24T00:33:25.355Z,0
2016-12-24T00:34:47.423Z,0
2016-12-24T00:36:09.492Z,0
2016-12-24T00:37:30.947Z,0
2016-12-24T00:38:52.798Z,0
2016-12-24T00:40:14.337Z,0
2016-12-24T00:41:36.099Z,0
2016-12-24T00:42:58.164Z,0
2016-12-24T00:44:19.641Z,0
2016-12-24T00:45:41.737Z,0
2016-12-24T00:47:04.099Z,0
2016-12-24T00:48:25.831Z,0
2016-12-24T00:49:47.622Z,0
2016-12-24T00:51:09.670Z,0
2016-12-24T00:52:31.800Z,0
2016-12-24T00:53:53.547Z,0
2016-12-24T00:55:14.995Z,0
2016-12-24T00:56:36.428Z,0
2016-12-24T00:57:57.602Z,0
2016-12-24T00:59:19.035Z,0
2016-12-24T01:00:40.450Z,0
2016-12-24T01:02:02.064Z,0
2016-12-24T01:03:23.805Z,0
2016-12-24T01:04:45.559Z,0
2016-12-24T01:06:07.305Z,0
2016-12-24T01:07:29.465Z,0
2016-12-24T01:08:51.527Z,0
2016-12-24T01:10:12.989Z,0
2016-12-24T01:11:35.366Z,0
2016-12-24T01:12:57.233Z,0
2016-12-24T01:14:19.045Z,0
2016-12-24T01:15:40.881Z,0
2016-12-24T01:17:02.669Z,0
2016-12-24T01:18:23.803Z,0
2016-12-24T01:19:46.058Z,0
2016-12-24T01:21:07.497Z,0
2016-12-24T01:22:29.025Z,0
2016-12-24T01:23:50.819Z,0
2016-12-24T01:25:12.717Z,0
2016-12-24T01:26:34.150Z,0
2016-12-24T01:27:56.225Z,0
2016-12-24T01:29:18.071Z,0
2016-12-24T01:30:39.822Z,0
2016-12-24T01:32:01.996Z,0
2016-12-24T01:33:23.759Z,0
2016-12-24T01:34:45.497Z,0
2016-12-24T01:36:07.556Z,0
2016-12-24T01:37:29.300Z,0
2016-12-24T01:38:50.724Z,0
2016-12-24T01:40:12.795Z,0
2016-12-24T01:41:34.868Z,0
2016-12-24T01:42:56.955Z,0
2016-12-24T01:44:18.724Z,0
2016-12-24T01:45:40.785Z,0
2016-12-24T01:47:02.286Z,0
2016-12-24T01:48:24.425Z,0
2016-12-24T01:49:46.178Z,0
2016-12-24T01:51:07.315Z,0
2016-12-24T01:52:29.142Z,0
2016-12-24T01:53:51.510Z,0
2016-12-24T01:55:12.979Z,0
2016-12-24T01:56:34.145Z,0
2016-12-24T01:57:56.209Z,0
2016-12-24T01:59:18.258Z,0
2016-12-24T02:00:40.313Z,0
2016-12-24T02:02:01.455Z,0
2016-12-24T02:03:23.210Z,0
2016-12-24T02:04:45.074Z,0
2016-12-24T02:06:07.123Z,0
2016-12-24T02:07:28.558Z,0
2016-12-24T02:08:50.132Z,0
2016-12-24T02:10:12.195Z,0
2016-12-24T02:11:34.061Z,0
2016-12-24T02:12:56.310Z,0
2016-12-24T02:14:17.963Z,0
2016-12-24T02:15:39.547Z,0
2016-12-24T02:17:01.907Z,0
2016-12-24T02:18:23.782Z,0
2016-12-24T02:19:45.245Z,0
2016-12-24T02:21:07.318Z,0
2016-12-24T02:22:28.771Z,0
2016-12-24T02:23:50.193Z,0
2016-12-24T02:25:12.564Z,0
2016-12-24T02:26:34.119Z,0
2016-12-24T02:27:56.503Z,0
2016-12-24T02:29:18.227Z,0
2016-12-24T02:30:39.961Z,0
2016-12-24T02:32:01.927Z,0
2016-12-24T02:33:23.704Z,0
2016-12-24T02:34:45.148Z,0
2016-12-24T02:36:07.212Z,0
2016-12-24T02:37:29.274Z,0
2016-12-24T02:38:50.807Z,0
2016-12-24T02:40:12.567Z,0
2016-12-24T02:41:34.316Z,0
2016-12-24T02:42:55.823Z,0
2016-12-24T02:44:17.862Z,0
2016-12-24T02:45:39.084Z,0
2016-12-24T02:47:01.210Z,0
2016-12-24T02:48:22.836Z,0
2016-12-24T02:49:44.956Z,0
2016-12-24T02:51:06.714Z,0
2016-12-24T02:52:27.588Z,0
2016-12-24T02:53:49.120Z,0
2016-12-24T02:55:11.488Z,0
2016-12-24T02:56:33.356Z,0
2016-12-24T02:57:54.501Z,0
2016-12-24T02:59:16.001Z,0
2016-12-24T03:00:38.048Z,0
2016-12-24T03:01:58.880Z,0
2016-12-24T03:03:20.666Z,0
2016-12-24T03:04:43.034Z,0
2016-12-24T03:06:05.194Z,0
2016-12-24T03:07:27.262Z,0
2016-12-24T03:08:48.774Z,0
2016-12-24T03:10:10.209Z,0
2016-12-24T03:11:31.727Z,0
2016-12-24T03:12:53.490Z,0
2016-12-24T03:14:15.596Z,0
2016-12-24T03:15:37.758Z,0
2016-12-24T03:17:00.134Z,0
2016-12-24T03:18:22.308Z,0
2016-12-24T03:19:44.142Z,0
2016-12-24T03:21:05.307Z,0
2016-12-24T03:22:26.722Z,0
2016-12-24T03:23:48.443Z,0
2016-12-24T03:25:10.569Z,0
2016-12-24T03:26:32.672Z,0
2016-12-24T03:27:54.756Z,0
2016-12-24T03:29:16.819Z,0
2016-12-24T03:30:38.320Z,0
2016-12-24T03:32:00.080Z,0
2016-12-24T03:33:21.850Z,0
2016-12-24T03:34:44.056Z,0
2016-12-24T03:36:05.814Z,0
2016-12-24T03:37:27.246Z,0
2016-12-24T03:38:49.006Z,0
2016-12-24T03:40:11.067Z,0
2016-12-24T03:41:32.618Z,0
2016-12-24T03:42:54.686Z,0
2016-12-24T03:44:16.555Z,0
2016-12-24T03:45:38.325Z,0
2016-12-24T03:47:00.071Z,0
2016-12-24T03:48:21.912Z,0
2016-12-24T03:49:43.389Z,0
2016-12-24T03:51:05.145Z,0
2016-12-24T03:52:27.420Z,0
2016-12-24T03:53:48.661Z,0
2016-12-24T03:55:10.114Z,0
2016-12-24T03:56:31.222Z,0
2016-12-24T03:57:53.279Z,0
2016-12-24T03:59:15.136Z,0
2016-12-24T04:00:36.592Z,0
2016-12-24T04:01:58.375Z,0
2016-12-24T04:03:20.781Z,0
2016-12-24T04:04:41.903Z,0
2016-12-24T04:06:03.327Z,0
2016-12-24T04:07:25.147Z,0
2016-12-24T04:08:46.898Z,0
2016-12-24T04:10:08.658Z,0
2016-12-24T04:11:30.533Z,0
2016-12-24T04:12:52.664Z,0
2016-12-24T04:14:14.444Z,0
2016-12-24T04:15:36.029Z,0
2016-12-24T04:16:57.794Z,0
2016-12-24T04:18:19.552Z,0
2016-12-24T04:19:41.667Z,0
2016-12-24T04:21:03.105Z,0
2016-12-24T04:22:25.177Z,0
2016-12-24T04:23:46.943Z,0
2016-12-24T04:25:08.709Z,0
2016-12-24T04:26:30.588Z,0
2016-12-24T04:27:52.971Z,0
2016-12-24T04:29:14.405Z,0
2016-12-24T04:30:36.145Z,0
2016-12-24T04:31:57.907Z,0
2016-12-24T04:33:19.713Z,0
2016-12-24T04:34:41.752Z,0
2016-12-24T04:36:03.817Z,0
2016-12-24T04:37:24.938Z,0
2016-12-24T04:38:46.683Z,0
2016-12-24T04:40:07.877Z,0
2016-12-24T04:41:30.058Z,0
2016-12-24T04:42:51.200Z,0
2016-12-24T04:44:12.483Z,0
2016-12-24T04:45:33.944Z,0
2016-12-24T04:46:55.731Z,0
2016-12-24T04:48:17.169Z,0
2016-12-24T04:49:38.645Z,0
2016-12-24T04:51:00.514Z,0
2016-12-24T04:52:21.983Z,0
2016-12-24T04:53:44.032Z,0
2016-12-24T04:55:05.948Z,0
2016-12-24T04:56:27.815Z,0
2016-12-24T04:57:49.871Z,0
2016-12-24T04:59:11.321Z,0
2016-12-24T05:00:32.994Z,0
2016-12-24T05:01:55.181Z,0
2016-12-24T05:03:16.622Z,0
2016-12-24T05:04:38.528Z,0
2016-12-24T05:06:00.764Z,0
2016-12-24T05:07:22.814Z,0
2016-12-24T05:08:44.271Z,0
2016-12-24T05:10:05.769Z,0
2016-12-24T05:11:27.554Z,0
2016-12-24T05:12:48.998Z,0
2016-12-24T05:14:10.436Z,0
2016-12-24T05:15:32.663Z,0
2016-12-24T05:16:54.783Z,0
2016-12-24T05:18:16.356Z,0
2016-12-24T05:19:38.496Z,0
2016-12-24T05:20:59.645Z,0
2016-12-24T05:22:21.389Z,0
2016-12-24T05:23:43.166Z,0
2016-12-24T05:25:04.476Z,0
2016-12-24T05:26:25.647Z,0
2016-12-24T05:27:47.395Z,0
2016-12-24T05:29:09.137Z,0
2016-12-24T05:30:31.210Z,0
2016-12-24T05:31:52.944Z,0
2016-12-24T05:33:14.386Z,0
2016-12-24T05:34:35.975Z,0
2016-12-24T05:35:57.861Z,0
2016-12-24T05:37:19.416Z,0
2016-12-24T05:38:40.922Z,0
2016-12-24T05:40:02.368Z,0
2016-12-24T05:41:24.456Z,0
2016-12-24T05:42:46.625Z,0
2016-12-24T05:44:07.753Z,0
2016-12-24T05:45:29.628Z,0
2016-12-24T05:46:52.088Z,0
2016-12-24T05:48:13.872Z,0
2016-12-24T05:49:35.746Z,0
2016-12-24T05:50:57.339Z,0
2016-12-24T05:52:19.082Z,0
2016-12-24T05:53:40.274Z,0
2016-12-24T05:55:02.336Z,0
2016-12-24T05:56:24.145Z,0
2016-12-24T05:57:45.581Z,0
2016-12-24T05:59:07.330Z,0
2016-12-24T06:00:29.136Z,0
2016-12-24T06:01:50.305Z,0
2016-12-24T06:03:12.476Z,0
2016-12-24T06:04:33.676Z,0
2016-12-24T06:05:55.150Z,0
2016-12-24T06:07:17.545Z,0
2016-12-24T06:08:39.092Z,0
2016-12-24T06:10:00.925Z,0
2016-12-24T06:11:22.519Z,0
2016-12-24T06:12:44.307Z,0
2016-12-24T06:14:05.536Z,0
2016-12-24T06:15:27.077Z,0
2016-12-24T06:16:48.825Z,0
2016-12-24T06:18:11.435Z,0
2016-12-24T06:19:33.021Z,0
2016-12-24T06:20:55.143Z,0
2016-12-24T06:22:17.067Z,0
2016-12-24T06:23:38.909Z,0
2016-12-24T06:25:00.667Z,0
2016-12-24T06:26:22.425Z,0
2016-12-24T06:27:43.853Z,0
2016-12-24T06:29:05.606Z,0
2016-12-24T06:30:27.359Z,0
2016-12-24T06:31:49.739Z,0
2016-12-24T06:33:11.195Z,0
2016-12-24T06:34:33.051Z,0
2016-12-24T06:35:55.114Z,0
2016-12-24T06:37:17.210Z,0
2016-12-24T06:38:38.991Z,0
2016-12-24T06:40:00.750Z,0
2016-12-24T06:41:22.177Z,0
2016-12-24T06:42:43.604Z,0
2016-12-24T06:44:04.715Z,0
2016-12-24T06:45:26.466Z,0
2016-12-24T06:46:48.288Z,0
2016-12-24T06:48:09.504Z,0
2016-12-24T06:49:31.653Z,0
2016-12-24T06:50:53.595Z,0
2016-12-24T06:52:15.354Z,0
2016-12-24T06:53:37.249Z,0
2016-12-24T06:54:59.006Z,0
2016-12-24T06:56:20.470Z,0
2016-12-24T06:57:42.915Z,0
2016-12-24T06:59:05.358Z,0
2016-12-24T07:00:27.106Z,0
2016-12-24T07:01:48.228Z,0
2016-12-24T07:03:09.976Z,0
2016-12-24T07:04:31.485Z,0
2016-12-24T07:05:53.229Z,0
2016-12-24T07:07:15.069Z,0
2016-12-24T07:08:36.227Z,0
2016-12-24T07:09:58.296Z,0
2016-12-24T07:11:20.487Z,0
2016-12-24T07:12:42.321Z,0
2016-12-24T07:14:03.823Z,0
2016-12-24T07:15:25.577Z,0
2016-12-24T07:16:46.704Z,0
2016-12-24T07:18:08.474Z,0
2016-12-24T07:19:30.565Z,0
2016-12-24T07:20:52.325Z,0
2016-12-24T07:22:13.617Z,0
2016-12-24T07:23:35.360Z,0
2016-12-24T07:24:56.789Z,0
2016-12-24T07:26:18.235Z,0
2016-12-24T07:27:40.076Z,0
2016-12-24T07:29:01.595Z,0
2016-12-24T07:30:23.365Z,0
2016-12-24T07:31:45.454Z,0
2016-12-24T07:33:06.613Z,0
2016-12-24T07:34:28.389Z,0
2016-12-24T07:36:05.364Z,0
2016-12-24T07:37:27.103Z,0
2016-12-24T07:38:48.628Z,5
2016-12-24T07:40:10.994Z,5
2016-12-24T07:41:32.482Z,5
2016-12-24T07:42:54.562Z,5
2016-12-24T07:44:16.727Z,5
2016-12-24T07:45:38.174Z,5
2016-12-24T07:46:59.002Z,5
2016-12-24T07:48:20.767Z,10
2016-12-24T07:49:42.546Z,10
2016-12-24T07:51:04.604Z,10
2016-12-24T07:52:26.466Z,10
2016-12-24T07:53:48.047Z,10
2016-12-24T07:55:10.215Z,10
2016-12-24T07:56:31.978Z,10
2016-12-24T07:57:53.421Z,10
2016-12-24T07:59:15.164Z,15
2016-12-24T08:00:37.240Z,15
2016-12-24T08:01:58.986Z,15
2016-12-24T08:03:20.776Z,15
2016-12-24T08:04:42.560Z,15
2016-12-24T08:06:04.007Z,20
2016-12-24T08:07:25.755Z,20
2016-12-24T08:08:47.840Z,20
2016-12-24T08:10:09.578Z,20
2016-12-24T08:11:30.697Z,25
2016-12-24T08:12:52.133Z,25
2016-12-24T08:14:14.235Z,25
2016-12-24T08:15:35.687Z,25
2016-12-24T08:16:57.736Z,25
2016-12-24T08:18:19.488Z,30
2016-12-24T08:19:41.666Z,30
2016-12-24T08:21:02.806Z,30
2016-12-24T08:22:24.550Z,30
2016-12-24T08:23:46.133Z,30
2016-12-24T08:25:07.683Z,30
2016-12-24T08:26:28.790Z,30
2016-12-24T08:27:50.860Z,30
2016-12-24T08:29:12.293Z,30
2016-12-24T08:30:34.035Z,30
2016-12-24T08:31:55.528Z,30
2016-12-24T08:33:16.997Z,30
2016-12-24T08:34:39.077Z,35
2016-12-24T08:36:00.533Z,35
2016-12-24T08:37:22.303Z,35
2016-12-24T08:38:44.674Z,40
2016-12-24T08:40:06.749Z,40
2016-12-24T08:41:28.224Z,40
2016-12-24T08:42:49.995Z,45
2016-12-24T08:44:11.832Z,45
2016-12-24T08:45:33.800Z,50
2016-12-24T08:46:54.934Z,50
2016-12-24T08:48:16.752Z,50
2016-12-24T08:49:38.567Z,55
2016-12-24T08:51:00.652Z,55
2016-12-24T08:52:22.458Z,55
2016-12-24T08:53:43.596Z,55
2016-12-24T08:55:05.082Z,55
2016-12-24T08:56:26.514Z,60
2016-12-24T08:57:48.278Z,55
2016-12-24T08:59:10.654Z,55
2016-12-24T09:00:32.874Z,50
2016-12-24T09:01:54.621Z,45
2016-12-24T09:03:16.389Z,45
2016-12-24T09:04:38.604Z,45
2016-12-24T09:05:59.815Z,40
2016-12-24T09:07:21.282Z,40
2016-12-24T09:08:43.383Z,40
2016-12-24T09:10:05.456Z,40
2016-12-24T09:11:26.889Z,35
2016-12-24T09:12:48.615Z,35
2016-12-24T09:14:11.069Z,30
2016-12-24T09:15:32.824Z,35
2016-12-24T09:16:54.873Z,40
2016-12-24T09:18:16.345Z,40
2016-12-24T09:19:38.737Z,45
2016-12-24T09:21:00.257Z,50
2016-12-24T09:22:22.330Z,50
2016-12-24T09:23:44.535Z,55
2016-12-24T09:25:06.615Z,60
2016-12-24T09:26:28.047Z,65
2016-12-24T09:27:50.096Z,70
2016-12-24T09:29:12.154Z,75
2016-12-24T09:30:33.917Z,85
2016-12-24T09:31:55.973Z,90
2016-12-24T09:33:17.420Z,100
2016-12-24T09:34:39.166Z,100
2016-12-24T09:36:00.635Z,105
2016-12-24T09:37:22.703Z,100
2016-12-24T09:38:44.336Z,105
2016-12-24T09:40:05.475Z,110
2016-12-24T09:41:26.932Z,115
2016-12-24T09:42:49.079Z,120
2016-12-24T09:44:10.546Z,115
2016-12-24T09:45:32.301Z,130
2016-12-24T09:46:54.163Z,150
2016-12-24T09:48:15.617Z,145
2016-12-24T09:49:37.385Z,140
2016-12-24T09:50:59.482Z,130
2016-12-24T09:52:21.265Z,115
2016-12-24T09:53:43.387Z,100
2016-12-24T09:55:04.838Z,105
2016-12-24T09:56:26.484Z,110
2016-12-24T09:57:48.322Z,110
2016-12-24T09:59:09.444Z,110
2016-12-24T10:00:31.507Z,110
2016-12-24T10:01:53.267Z,125
2016-12-24T10:03:14.738Z,145
2016-12-24T10:04:36.513Z,140
2016-12-24T10:05:58.995Z,145
2016-12-24T10:07:20.768Z,140
2016-12-24T10:08:42.513Z,145
2016-12-24T10:10:04.396Z,165
2016-12-24T10:11:26.275Z,180
2016-12-24T10:12:48.614Z,180
2016-12-24T10:14:10.380Z,185
2016-12-24T10:15:32.454Z,205
2016-12-24T10:16:54.834Z,190
2016-12-24T10:18:16.812Z,175
2016-12-24T10:19:39.382Z,160
2016-12-24T10:21:01.535Z,150
2016-12-24T10:22:23.704Z,140
2016-12-24T10:23:45.142Z,135
2016-12-24T10:25:06.894Z,135
2016-12-24T10:26:29.293Z,135
2016-12-24T10:27:50.125Z,145
2016-12-24T10:29:11.927Z,150
2016-12-24T10:30:33.399Z,155
2016-12-24T10:31:55.499Z,165
2016-12-24T10:33:17.256Z,175
2016-12-24T10:34:39.325Z,185
2016-12-24T10:36:01.759Z,175
2016-12-24T10:37:23.521Z,170
2016-12-24T10:38:45.321Z,175
2016-12-24T10:40:07.204Z,180
2016-12-24T10:41:28.966Z,185
2016-12-24T10:42:50.734Z,195
2016-12-24T10:44:13.209Z,200
2016-12-24T10:45:34.948Z,185
2016-12-24T10:46:57.463Z,165
2016-12-24T10:48:19.542Z,135
2016-12-24T10:49:41.715Z,125
2016-12-24T10:51:03.467Z,115
2016-12-24T10:52:25.580Z,105
2016-12-24T10:53:47.654Z,90
2016-12-24T10:55:09.425Z,80
2016-12-24T10:56:31.542Z,70
2016-12-24T10:57:53.959Z,70
2016-12-24T10:59:15.724Z,75
2016-12-24T11:00:37.802Z,75
2016-12-24T11:01:58.934Z,80
2016-12-24T11:03:20.775Z,85
2016-12-24T11:04:43.159Z,85
2016-12-24T11:06:05.222Z,80
2016-12-24T11:07:27.354Z,85
2016-12-24T11:08:48.494Z,90
2016-12-24T11:10:10.232Z,90
2016-12-24T11:11:32.004Z,100
2016-12-24T11:12:53.128Z,105
2016-12-24T11:14:14.907Z,100
2016-12-24T11:15:36.995Z,105
2016-12-24T11:16:58.133Z,105
2016-12-24T11:18:19.913Z,105
2016-12-24T11:19:42.343Z,105
2016-12-24T11:21:04.392Z,110
2016-12-24T11:22:26.449Z,115
2016-12-24T11:23:48.525Z,115
2016-12-24T11:25:10.601Z,120
2016-12-24T11:26:32.125Z,115
2016-12-24T11:27:53.895Z,110
2016-12-24T11:29:16.332Z,110
2016-12-24T11:30:38.111Z,120
2016-12-24T11:31:59.881Z,115
2016-12-24T11:33:21.945Z,115
2016-12-24T11:34:44.151Z,125
2016-12-24T11:36:05.882Z,125
2016-12-24T11:37:27.992Z,135
2016-12-24T11:38:49.128Z,130
2016-12-24T11:40:11.039Z,130
2016-12-24T11:41:32.882Z,140
2016-12-24T11:42:54.653Z,150
2016-12-24T11:44:16.131Z,155
2016-12-24T11:45:38.243Z,155
2016-12-24T11:47:00.003Z,145
2016-12-24T11:48:21.775Z,130
2016-12-24T11:49:43.629Z,110
2016-12-24T11:51:06.011Z,100
2016-12-24T11:52:28.102Z,90
2016-12-24T11:53:49.898Z,95
2016-12-24T11:55:11.660Z,95
2016-12-24T11:56:33.731Z,100
2016-12-24T11:57:56.017Z,100
2016-12-24T11:59:18.380Z,95
2016-12-24T12:00:40.470Z,95
2016-12-24T12:02:02.927Z,90
2016-12-24T12:03:56.792Z,100
2016-12-24T12:05:18.993Z,100
2016-12-24T12:06:41.073Z,115
2016-12-24T12:08:02.890Z,120
2016-12-24T12:09:24.327Z,130
2016-12-24T12:10:46.370Z,135
2016-12-24T12:12:08.786Z,145
2016-12-24T12:13:30.553Z,150
2016-12-24T12:14:52.314Z,160
2016-12-24T12:16:14.065Z,150
2016-12-24T12:17:36.166Z,150
2016-12-24T12:18:58.250Z,145
2016-12-24T12:20:19.803Z,135
2016-12-24T12:21:41.630Z,110
2016-12-24T12:23:03.836Z,75
2016-12-24T12:24:26.219Z,55
2016-12-24T12:25:48.298Z,60
2016-12-24T12:27:10.108Z,65
2016-12-24T12:28:32.245Z,70
2016-12-24T12:29:54.602Z,75
2016-12-24T12:31:16.675Z,95
2016-12-24T12:32:38.459Z,105
2016-12-24T12:34:00.228Z,100
2016-12-24T12:35:22.047Z,110
2016-12-24T12:36:43.480Z,100
2016-12-24T12:38:04.935Z,105
2016-12-24T12:39:26.388Z,105
2016-12-24T12:40:48.762Z,105
2016-12-24T12:42:10.559Z,110
2016-12-24T12:43:32.678Z,90
2016-12-24T12:44:53.932Z,85
2016-12-24T12:46:16.341Z,90
2016-12-24T12:47:37.907Z,85
2016-12-24T12:48:59.672Z,70
2016-12-24T12:50:21.793Z,60
2016-12-24T12:51:43.399Z,60
2016-12-24T12:53:05.466Z,60
2016-12-24T12:54:27.339Z,60
2016-12-24T12:55:48.199Z,65
2016-12-24T12:57:10.430Z,70
2016-12-24T12:58:31.891Z,70
2016-12-24T12:59:53.982Z,70
2016-12-24T13:01:15.820Z,65
2016-12-24T13:02:37.673Z,60
2016-12-24T13:03:59.443Z,50
2016-12-24T13:05:21.241Z,45
2016-12-24T13:06:43.405Z,60
2016-12-24T13:08:05.540Z,55
2016-12-24T13:09:27.201Z,50
2016-12-24T13:10:49.297Z,45
2016-12-24T13:12:11.459Z,50
2016-12-24T13:13:32.912Z,45
2016-12-24T13:14:55.321Z,45
2016-12-24T13:16:16.802Z,50
2016-12-24T13:17:38.863Z,50
2016-12-24T13:19:01.248Z,45
2016-12-24T13:20:23.627Z,55
2016-12-24T13:21:46.075Z,40
2016-12-24T13:23:08.179Z,40
2016-12-24T13:24:29.324Z,40
2016-12-24T13:25:51.093Z,40
2016-12-24T13:27:12.896Z,55
2016-12-24T13:28:34.688Z,65
2016-12-24T13:29:57.157Z,60
2016-12-24T13:31:19.303Z,65
2016-12-24T13:32:41.388Z,65
2016-12-24T13:34:03.222Z,75
2016-12-24T13:35:25.274Z,70
2016-12-24T13:36:47.440Z,70
2016-12-24T13:38:09.203Z,70
2016-12-24T13:39:31.643Z,70
2016-12-24T13:40:53.400Z,70
2016-12-24T13:42:15.857Z,65
2016-12-24T13:43:37.951Z,70
2016-12-24T13:44:59.708Z,95
2016-12-24T13:46:21.778Z,80
2016-12-24T13:47:43.830Z,75
2016-12-24T13:49:05.607Z,65
2016-12-24T13:50:27.689Z,65
2016-12-24T13:51:49.523Z,70
2016-12-24T13:53:11.591Z,75
2016-12-24T13:54:33.460Z,55
2016-12-24T13:55:55.226Z,45
2016-12-24T13:57:16.684Z,35
2016-12-24T13:58:38.923Z,40
2016-12-24T14:00:00.803Z,40
2016-12-24T14:01:22.863Z,35
2016-12-24T14:02:44.636Z,40
2016-12-24T14:04:05.814Z,45
2016-12-24T14:05:27.563Z,50
2016-12-24T14:06:49.416Z,55
2016-12-24T14:08:11.577Z,45
2016-12-24T14:09:33.329Z,40
2016-12-24T14:10:55.178Z,45
2016-12-24T14:12:17.254Z,35
2016-12-24T14:13:39.054Z,30
2016-12-24T14:15:01.284Z,35
2016-12-24T14:16:22.428Z,35
2016-12-24T14:17:44.187Z,35
2016-12-24T14:19:05.993Z,35
2016-12-24T14:20:28.168Z,30
2016-12-24T14:21:49.925Z,25
2016-12-24T14:23:12.301Z,20
2016-12-24T14:24:33.748Z,20
2016-12-24T14:25:56.129Z,20
2016-12-24T14:27:18.494Z,20
2016-12-24T14:28:40.027Z,20
2016-12-24T14:30:01.935Z,10
2016-12-24T14:31:23.415Z,10
2016-12-24T14:32:45.485Z,15
2016-12-24T14:34:07.279Z,15
2016-12-24T14:35:29.336Z,15
2016-12-24T14:36:51.095Z,20
2016-12-24T14:38:12.576Z,25
2016-12-24T14:39:34.616Z,25
2016-12-24T14:40:56.394Z,25
2016-12-24T14:42:18.231Z,25
2016-12-24T14:43:40.007Z,25
2016-12-24T14:45:02.078Z,25
2016-12-24T14:46:24.182Z,25
2016-12-24T14:47:45.955Z,20
2016-12-24T14:49:08.096Z,15
2016-12-24T14:50:30.468Z,15
2016-12-24T14:51:52.534Z,10
2016-12-24T14:53:14.096Z,10
2016-12-24T14:54:36.513Z,10
2016-12-24T14:55:58.337Z,10
2016-12-24T14:57:20.083Z,10
2016-12-24T14:58:41.882Z,10
2016-12-24T15:00:04.267Z,10
2016-12-24T15:01:26.055Z,5
2016-12-24T15:02:47.820Z,5
2016-12-24T15:04:09.565Z,5
2016-12-24T15:05:31.953Z,5
2016-12-24T15:06:53.733Z,5
2016-12-24T15:08:15.175Z,5
2016-12-24T15:09:37.054Z,5
2016-12-24T15:10:59.254Z,5
2016-12-24T15:12:21.004Z,0
2016-12-24T15:13:42.810Z,0
2016-12-24T15:15:04.270Z,0
2016-12-24T15:16:26.096Z,0
2016-12-24T15:17:47.860Z,0
2016-12-24T15:19:09.285Z,0
2016-12-24T15:20:31.419Z,0
2016-12-24T15:21:53.784Z,0
2016-12-24T15:23:15.574Z,0
2016-12-24T15:24:37.322Z,0
2016-12-24T15:25:59.138Z,0
2016-12-24T15:27:21.190Z,0
2016-12-24T15:28:43.379Z,0
2016-12-24T15:30:05.759Z,0
2016-12-24T15:31:28.136Z,0
2016-12-24T15:32:50.314Z,0
2016-12-24T15:34:12.069Z,0
2016-12-24T15:35:33.801Z,0
2016-12-24T15:36:55.616Z,0
2016-12-24T15:38:17.084Z,0
2016-12-24T15:39:39.128Z,0
2016-12-24T15:41:01.535Z,0
2016-12-24T15:42:23.906Z,0
2016-12-24T15:43:45.679Z,0
2016-12-24T15:45:07.450Z,0
2016-12-24T15:46:29.273Z,0
2016-12-24T15:47:51.039Z,0
2016-12-24T15:49:13.145Z,0
2016-12-24T15:50:34.270Z,0
2016-12-24T15:51:56.027Z,0
2016-12-24T15:53:17.773Z,0
2016-12-24T15:54:40.145Z,0
2016-12-24T15:56:01.901Z,0
2016-12-24T15:57:24.148Z,0
2016-12-24T15:58:45.607Z,0
2016-12-24T16:00:08.007Z,0
2016-12-24T16:01:30.070Z,0
2016-12-24T16:02:51.509Z,0
2016-12-24T16:04:13.876Z,0
2016-12-24T16:05:35.724Z,0
2016-12-24T16:06:57.906Z,0
2016-12-24T16:08:20.356Z,0
2016-12-24T16:09:42.233Z,0
2016-12-24T16:11:04.314Z,0
2016-12-24T16:12:26.820Z,0
2016-12-24T16:13:48.320Z,0
2016-12-24T16:15:10.097Z,0
2016-12-24T16:16:31.857Z,0
2016-12-24T16:17:53.987Z,0
2016-12-24T16:19:15.435Z,0
2016-12-24T16:20:37.495Z,0
2016-12-24T16:21:59.292Z,0
2016-12-24T16:23:21.656Z,0
2016-12-24T16:24:43.732Z,0
2016-12-24T16:26:05.487Z,0
2016-12-24T16:27:27.616Z,0
2016-12-24T16:28:49.097Z,0
2016-12-24T16:30:10.682Z,0
2016-12-24T16:31:32.766Z,0
2016-12-24T16:32:54.254Z,0
2016-12-24T16:34:15.378Z,0
2016-12-24T16:35:37.137Z,0
2016-12-24T16:36:58.892Z,0
2016-12-24T16:38:20.018Z,0
2016-12-24T16:39:41.467Z,0
2016-12-24T16:41:02.919Z,0
2016-12-24T16:42:24.687Z,0
2016-12-24T16:43:46.820Z,0
2016-12-24T16:45:08.297Z,0
2016-12-24T16:46:30.695Z,0
2016-12-24T16:47:52.146Z,0
2016-12-24T16:49:13.594Z,0
2016-12-24T16:50:34.782Z,0
2016-12-24T16:51:56.225Z,0
2016-12-24T16:53:18.123Z,0
2016-12-24T16:54:40.297Z,0
2016-12-24T16:56:02.096Z,0
2016-12-24T16:57:23.851Z,0
2016-12-24T16:58:45.609Z,0
2016-12-24T17:00:07.075Z,0
2016-12-24T17:01:29.135Z,0
2016-12-24T17:02:50.876Z,0
2016-12-24T17:04:12.075Z,0
2016-12-24T17:05:34.144Z,0
2016-12-24T17:06:55.944Z,0
2016-12-24T17:08:17.715Z,0
2016-12-24T17:09:39.154Z,0
2016-12-24T17:11:01.246Z,0
2016-12-24T17:12:23.637Z,0
2016-12-24T17:13:45.725Z,0
2016-12-24T17:15:07.496Z,0
2016-12-24T17:16:29.334Z,0
2016-12-24T17:17:50.795Z,0
2016-12-24T17:19:12.885Z,0
2016-12-24T17:20:34.407Z,0
2016-12-24T17:21:56.197Z,0
2016-12-24T17:23:17.955Z,0
2016-12-24T17:24:39.695Z,0
2016-12-24T17:26:01.901Z,0
2016-12-24T17:27:23.713Z,0
2016-12-24T17:28:45.783Z,0
2016-12-24T17:30:06.686Z,0
2016-12-24T17:31:28.133Z,0
2016-12-24T17:32:49.555Z,0
2016-12-24T17:34:11.312Z,0
2016-12-24T17:35:33.167Z,0
2016-12-24T17:36:55.221Z,0
2016-12-24T17:38:17.273Z,0
2016-12-24T17:39:39.433Z,0
2016-12-24T17:41:01.201Z,0
2016-12-24T17:42:22.953Z,0
2016-12-24T17:43:44.131Z,0
2016-12-24T17:45:05.912Z,0
2016-12-24T17:46:28.003Z,0
2016-12-24T17:47:50.070Z,0
2016-12-24T17:49:12.188Z,0
2016-12-24T17:50:33.786Z,0
2016-12-24T17:51:56.191Z,0
2016-12-24T17:53:18.269Z,0
2016-12-24T17:54:40.326Z,0
2016-12-24T17:56:02.089Z,0
2016-12-24T17:57:23.832Z,0
2016-12-24T17:58:44.956Z,0
2016-12-24T18:00:07.011Z,0
2016-12-24T18:01:28.801Z,0
2016-12-24T18:02:51.177Z,0
2016-12-24T18:04:12.822Z,0
2016-12-24T18:05:34.990Z,0
2016-12-24T18:06:57.099Z,0
2016-12-24T18:08:19.168Z,0
2016-12-24T18:09:40.642Z,0
2016-12-24T18:11:02.441Z,0
2016-12-24T18:12:24.830Z,0
2016-12-24T18:13:46.887Z,0
2016-12-24T18:15:08.691Z,0
2016-12-24T18:16:29.523Z,0
2016-12-24T18:17:51.261Z,0
2016-12-24T18:19:13.011Z,0
2016-12-24T18:20:34.803Z,0
2016-12-24T18:21:56.240Z,0
2016-12-24T18:23:17.968Z,0
2016-12-24T18:24:40.033Z,0
2016-12-24T18:26:02.073Z,0
2016-12-24T18:27:23.610Z,0
2016-12-24T18:28:45.381Z,0
2016-12-24T18:30:07.154Z,0
2016-12-24T18:31:29.281Z,0
2016-12-24T18:32:51.057Z,0
2016-12-24T18:34:12.211Z,0
2016-12-24T18:35:33.948Z,0
2016-12-24T18:36:55.403Z,0
2016-12-24T18:38:17.160Z,0
2016-12-24T18:39:39.577Z,0
2016-12-24T18:41:01.374Z,0
2016-12-24T18:42:23.785Z,0
2016-12-24T18:43:45.226Z,0
2016-12-24T18:45:07.600Z,0
2016-12-24T18:46:29.686Z,0
2016-12-24T18:47:51.433Z,0
2016-12-24T18:49:13.210Z,0
2016-12-24T18:50:34.648Z,0
2016-12-24T18:51:56.704Z,0
2016-12-24T18:53:18.823Z,0
2016-12-24T18:54:40.381Z,0
2016-12-24T18:56:01.829Z,0
2016-12-24T18:57:23.569Z,0
2016-12-24T18:58:45.880Z,0
2016-12-24T19:00:08.274Z,0
2016-12-24T19:01:29.741Z,0
2016-12-24T19:02:51.807Z,0
2016-12-24T19:04:13.724Z,0
2016-12-24T19:05:35.802Z,0
2016-12-24T19:06:57.653Z,0
2016-12-24T19:08:20.029Z,0
2016-12-24T19:09:41.791Z,0
2016-12-24T19:11:03.868Z,0
2016-12-24T19:12:25.312Z,0
2016-12-24T19:13:46.451Z,0
2016-12-24T19:15:08.554Z,0
2016-12-24T19:16:30.924Z,0
2016-12-24T19:17:53.454Z,0
2016-12-24T19:19:47.060Z,0
2016-12-24T19:21:09.169Z,0
2016-12-24T19:22:31.251Z,0
2016-12-24T19:23:53.109Z,0
2016-12-24T19:25:14.585Z,0
2016-12-24T19:26:36.678Z,0
2016-12-24T19:27:58.190Z,0
2016-12-24T19:29:20.071Z,0
2016-12-24T19:30:41.821Z,0
2016-12-24T19:32:04.230Z,0
2016-12-24T19:33:25.690Z,0
2016-12-24T19:34:47.460Z,0
2016-12-24T19:36:08.977Z,0
2016-12-24T19:37:30.429Z,0
2016-12-24T19:38:52.271Z,0
2016-12-24T19:40:14.032Z,0
2016-12-24T19:41:36.100Z,0
2016-12-24T19:42:57.861Z,0
2016-12-24T19:44:19.602Z,0
2016-12-24T19:45:41.691Z,0
2016-12-24T19:47:04.120Z,0
2016-12-24T19:48:25.895Z,0
2016-12-24T19:49:47.967Z,0